Time;durP1;ratioP1;P1;durP2;ratioP2;P2;SDS_P1;SDS_P2;PMS_P1;PMS_P2;Temp;Humidity;BMP_temperature;BMP_pressure;BME280_temperature;BME280_humidity;BME280_pressure;Samples;Min_cycle;Max_cycle;Signal;HPM_P1;HPM_P2
2023/04/20 00:00:10;;;;;;;3.95;0.77;;;11.30;48.50;;;;;;5075139;28;20127;-80
2023/04/20 00:02:39;;;;;;;3.00;1.10;;;11.40;48.80;;;;;;5058932;28;20134;-80
2023/04/20 00:05:06;;;;;;;8.52;1.70;;;11.30;48.80;;;;;;5058683;28;20188;-80
2023/04/20 00:07:32;;;;;;;1.60;0.80;;;11.30;48.90;;;;;;5075337;28;20040;-80
2023/04/20 00:09:58;;;;;;;2.13;0.80;;;11.30;48.90;;;;;;5093668;28;20085;-80
2023/04/20 00:12:24;;;;;;;3.90;0.90;;;11.50;48.90;;;;;;5059007;28;20453;-80
2023/04/20 00:14:50;;;;;;;1.80;0.77;;;11.40;48.20;;;;;;5075427;28;20032;-79
2023/04/20 00:17:16;;;;;;;2.92;0.75;;;11.20;48.70;;;;;;5075723;28;20043;-80
2023/04/20 00:19:42;;;;;;;5.55;1.10;;;11.10;49.10;;;;;;5042063;28;20361;-80
2023/04/20 00:22:07;;;;;;;3.15;1.42;;;11.30;50.00;;;;;;5058509;28;20036;-80
2023/04/20 00:24:33;;;;;;;2.33;1.00;;;11.20;49.00;;;;;;5093217;28;20032;-81
2023/04/20 00:26:59;;;;;;;3.25;0.80;;;11.30;49.70;;;;;;5093779;28;20028;-80
2023/04/20 00:29:25;;;;;;;4.43;0.85;;;11.40;49.30;;;;;;5093289;28;20345;-80
2023/04/20 00:31:50;;;;;;;4.28;1.30;;;11.40;50.00;;;;;;5075247;28;20379;-80
2023/04/20 00:34:16;;;;;;;1.95;0.90;;;11.50;49.00;;;;;;5058807;28;20028;-81
2023/04/20 00:36:42;;;;;;;2.35;0.90;;;11.30;49.30;;;;;;5093249;28;20422;-80
2023/04/20 00:39:07;;;;;;;3.13;0.95;;;11.40;50.50;;;;;;5058703;28;20029;-81
2023/04/20 00:41:33;;;;;;;6.35;1.10;;;11.60;50.40;;;;;;5075240;28;20036;-80
2023/04/20 00:43:59;;;;;;;2.30;1.10;;;11.50;49.50;;;;;;5075151;28;20031;-80
2023/04/20 00:46:25;;;;;;;2.78;0.77;;;11.60;49.80;;;;;;5042289;28;20028;-80
2023/04/20 00:48:52;;;;;;;3.90;1.20;;;11.60;49.40;;;;;;5093219;28;20032;-80
2023/04/20 00:51:20;;;;;;;2.28;1.05;;;11.60;49.60;;;;;;5093118;28;20032;-80
2023/04/20 00:53:46;;;;;;;7.75;1.20;;;11.60;49.10;;;;;;5092815;28;20119;-80
2023/04/20 00:56:15;;;;;;;4.00;1.00;;;11.40;48.80;;;;;;5058210;28;20132;-80
2023/04/20 00:58:42;;;;;;;4.65;1.02;;;11.10;50.20;;;;;;5093010;28;20032;-79
2023/04/20 01:01:09;;;;;;;2.83;1.10;;;11.10;50.10;;;;;;5074997;28;20028;-80
2023/04/20 01:03:35;;;;;;;4.40;0.90;;;11.10;50.20;;;;;;5093004;28;20024;-80
2023/04/20 01:06:02;;;;;;;3.17;1.10;;;11.10;50.60;;;;;;5058391;28;20048;-80
2023/04/20 01:08:28;;;;;;;3.33;1.10;;;11.10;51.30;;;;;;5058077;28;20081;-80
2023/04/20 01:10:55;;;;;;;2.80;0.90;;;11.20;51.20;;;;;;5058674;28;20032;-80
2023/04/20 01:13:20;;;;;;;2.85;1.10;;;11.20;51.10;;;;;;5093015;28;20040;-80
2023/04/20 01:15:46;;;;;;;2.28;1.05;;;11.20;50.70;;;;;;5074890;28;20116;-80
2023/04/20 01:18:12;;;;;;;3.63;1.30;;;11.10;51.20;;;;;;5075023;28;20020;-79
2023/04/20 01:20:38;;;;;;;3.97;1.58;;;11.20;51.70;;;;;;5058078;28;20028;-80
2023/04/20 01:23:04;;;;;;;2.10;1.08;;;11.20;51.60;;;;;;5075671;28;20024;-79
2023/04/20 01:25:29;;;;;;;4.95;1.40;;;11.10;52.20;;;;;;5096809;28;20112;-80
2023/04/20 01:27:55;;;;;;;3.65;1.63;;;11.00;52.60;;;;;;5096765;28;20028;-80
2023/04/20 01:30:21;;;;;;;4.78;1.38;;;11.00;53.10;;;;;;5078852;28;20468;-80
2023/04/20 01:32:46;;;;;;;4.10;1.40;;;10.90;53.80;;;;;;5096435;28;20074;-80
2023/04/20 01:35:12;;;;;;;4.43;1.40;;;10.80;54.30;;;;;;5061784;28;20032;-80
2023/04/20 01:37:39;;;;;;;6.55;1.50;;;10.70;55.20;;;;;;5096404;28;20031;-80
2023/04/20 01:40:08;;;;;;;3.53;1.27;;;10.70;55.50;;;;;;5078487;28;20036;-79
2023/04/20 01:42:33;;;;;;;4.55;1.58;;;10.80;55.80;;;;;;5078671;28;20384;-80
2023/04/20 01:44:59;;;;;;;2.25;1.20;;;10.70;56.50;;;;;;5078633;28;20078;-79
2023/04/20 01:47:25;;;;;;;2.08;1.23;;;10.60;57.20;;;;;;5078400;28;20036;-79
2023/04/20 01:49:50;;;;;;;7.55;1.65;;;10.60;57.70;;;;;;5061314;28;20122;-80
2023/04/20 01:52:16;;;;;;;4.68;1.73;;;10.70;57.50;;;;;;5061108;28;20032;-79
2023/04/20 01:54:42;;;;;;;8.23;2.15;;;10.60;57.90;;;;;;5061340;28;20024;-80
2023/04/20 01:57:07;;;;;;;4.38;1.73;;;10.50;58.40;;;;;;5045195;28;20028;-80
2023/04/20 01:59:33;;;;;;;2.80;1.20;;;10.30;58.70;;;;;;5061452;28;20038;-80
2023/04/20 02:01:58;;;;;;;4.25;1.60;;;10.30;58.80;;;;;;5044802;28;20337;-79
2023/04/20 02:04:24;;;;;;;3.20;1.42;;;10.40;59.60;;;;;;5061829;28;20055;-80
2023/04/20 02:06:50;;;;;;;4.10;1.67;;;10.50;59.30;;;;;;5077717;28;20046;-79
2023/04/20 02:09:15;;;;;;;4.80;1.40;;;10.40;59.40;;;;;;5078048;28;20028;-80
2023/04/20 02:11:41;;;;;;;3.17;1.40;;;10.30;60.10;;;;;;5096203;28;20032;-80
2023/04/20 02:14:07;;;;;;;4.40;1.85;;;10.50;60.50;;;;;;5061660;28;20051;-80
2023/04/20 02:16:34;;;;;;;3.92;1.13;;;10.50;59.90;;;;;;5077659;28;20383;-80
2023/04/20 02:19:00;;;;;;;3.83;1.65;;;10.40;60.00;;;;;;5061431;28;20492;-80
2023/04/20 02:21:26;;;;;;;3.88;1.63;;;10.50;60.00;;;;;;5077748;28;20028;-80
2023/04/20 02:23:52;;;;;;;4.65;2.03;;;10.50;60.10;;;;;;5095810;28;20111;-80
2023/04/20 02:26:18;;;;;;;5.05;1.80;;;10.70;59.80;;;;;;5060912;28;20162;-80
2023/04/20 02:28:43;;;;;;;5.82;2.20;;;10.60;59.90;;;;;;5077685;28;20493;-80
2023/04/20 02:31:09;;;;;;;3.78;1.73;;;10.60;60.10;;;;;;5077474;28;20032;-80
2023/04/20 02:33:35;;;;;;;3.80;1.75;;;10.60;60.40;;;;;;5060659;28;20032;-81
2023/04/20 02:36:01;;;;;;;3.05;1.65;;;10.50;61.30;;;;;;5077801;28;20368;-80
2023/04/20 02:38:27;;;;;;;3.10;1.48;;;10.50;61.10;;;;;;5061519;28;20023;-80
2023/04/20 02:40:52;;;;;;;3.70;1.80;;;10.40;61.50;;;;;;5060637;28;20036;-80
2023/04/20 02:43:19;;;;;;;4.07;1.77;;;10.20;61.90;;;;;;5061393;28;20465;-80
2023/04/20 02:45:45;;;;;;;5.40;1.85;;;10.20;62.40;;;;;;5077660;28;20028;-80
2023/04/20 02:48:10;;;;;;;5.13;2.00;;;10.20;62.80;;;;;;5060455;28;20569;-79
2023/04/20 02:50:37;;;;;;;3.97;1.73;;;10.30;62.60;;;;;;5077582;28;20093;-80
2023/04/20 02:53:03;;;;;;;4.50;1.88;;;10.30;63.10;;;;;;5077037;28;20115;-81
2023/04/20 02:55:29;;;;;;;7.13;2.00;;;10.30;63.50;;;;;;5077100;28;20032;-80
2023/04/20 02:57:54;;;;;;;5.63;2.10;;;10.30;63.20;;;;;;5077078;28;20078;-80
2023/04/20 03:00:20;;;;;;;3.88;2.13;;;10.20;63.60;;;;;;5094824;28;20491;-80
2023/04/20 03:02:46;;;;;;;4.32;1.98;;;10.30;63.80;;;;;;5077121;28;20032;-80
2023/04/20 03:05:12;;;;;;;4.63;2.03;;;10.30;63.60;;;;;;5060115;28;20063;-80
2023/04/20 03:07:37;;;;;;;2.70;1.60;;;10.10;64.20;;;;;;5095125;28;20032;-80
2023/04/20 03:10:05;;;;;;;4.00;2.00;;;9.90;65.00;;;;;;5094878;28;20176;-80
2023/04/20 03:12:30;;;;;;;4.65;2.08;;;9.90;65.20;;;;;;5060015;28;20043;-80
2023/04/20 03:14:56;;;;;;;4.30;2.00;;;10.00;65.00;;;;;;5059868;28;20032;-80
2023/04/20 03:17:22;;;;;;;4.55;1.75;;;10.10;64.90;;;;;;5060336;28;20105;-80
2023/04/20 03:19:48;;;;;;;1.73;1.27;;;10.10;65.10;;;;;;5076380;28;20028;-79
2023/04/20 03:22:13;;;;;;;5.18;1.75;;;10.00;65.20;;;;;;5059830;28;20486;-80
2023/04/20 03:24:39;;;;;;;2.90;1.73;;;10.10;65.60;;;;;;5060037;28;20430;-80
2023/04/20 03:27:05;;;;;;;4.57;1.75;;;10.20;65.60;;;;;;5076392;28;20032;-80
2023/04/20 03:29:30;;;;;;;3.70;1.77;;;10.20;65.30;;;;;;5042897;28;20122;-79
2023/04/20 03:31:56;;;;;;;5.70;2.15;;;10.20;65.20;;;;;;5076330;28;20119;-80
2023/04/20 03:34:22;;;;;;;4.10;1.90;;;10.00;65.40;;;;;;5076585;28;20078;-80
2023/04/20 03:36:48;;;;;;;6.55;2.10;;;10.00;65.90;;;;;;5059701;28;20051;-80
2023/04/20 03:39:13;;;;;;;4.85;1.65;;;10.10;65.90;;;;;;5076302;28;20461;-80
2023/04/20 03:41:39;;;;;;;6.07;2.45;;;10.20;65.70;;;;;;5094252;28;20472;-80
2023/04/20 03:44:06;;;;;;;4.47;1.52;;;10.10;65.60;;;;;;5076193;28;20461;-80
2023/04/20 03:46:32;;;;;;;3.97;1.75;;;10.00;65.90;;;;;;5075744;28;20111;-80
2023/04/20 03:48:58;;;;;;;2.92;1.42;;;10.00;66.20;;;;;;5059729;28;20385;-80
2023/04/20 03:51:23;;;;;;;4.05;1.85;;;9.90;66.20;;;;;;5075927;28;20036;-79
2023/04/20 03:53:49;;;;;;;4.18;1.60;;;10.00;66.30;;;;;;5059523;28;20028;-79
2023/04/20 03:56:15;;;;;;;5.40;2.03;;;10.10;66.00;;;;;;5075737;28;20157;-79
2023/04/20 03:58:40;;;;;;;4.25;1.90;;;10.20;66.00;;;;;;5059462;28;20067;-80
2023/04/20 04:01:06;;;;;;;3.88;1.75;;;10.20;66.00;;;;;;5059222;28;20089;-80
2023/04/20 04:03:33;;;;;;;3.33;1.60;;;10.20;66.00;;;;;;5076080;28;20028;-80
2023/04/20 04:05:59;;;;;;;4.80;1.98;;;10.20;66.10;;;;;;5058692;28;20108;-80
2023/04/20 04:08:24;;;;;;;6.90;1.90;;;10.10;66.30;;;;;;5059151;28;20126;-79
2023/04/20 04:10:50;;;;;;;6.95;2.15;;;10.10;66.60;;;;;;5075582;28;20077;-80
2023/04/20 04:13:16;;;;;;;5.10;1.67;;;10.00;66.90;;;;;;5076316;28;20039;-80
2023/04/20 04:15:41;;;;;;;2.92;1.70;;;10.00;67.00;;;;;;5059560;28;20028;-79
2023/04/20 04:18:07;;;;;;;6.15;2.10;;;10.20;66.90;;;;;;5058943;28;20506;-80
2023/04/20 04:20:33;;;;;;;5.47;2.25;;;10.30;66.50;;;;;;5059100;28;20490;-79
2023/04/20 04:22:58;;;;;;;4.07;1.88;;;10.30;66.70;;;;;;5075588;28;20062;-79
2023/04/20 04:25:24;;;;;;;4.45;2.08;;;10.20;66.80;;;;;;5075373;28;20032;-80
2023/04/20 04:27:50;;;;;;;5.07;2.17;;;10.30;67.00;;;;;;5075958;28;20218;-80
2023/04/20 04:30:16;;;;;;;7.22;1.80;;;10.20;67.10;;;;;;5058796;28;20119;-80
2023/04/20 04:32:43;;;;;;;3.08;1.83;;;10.30;66.90;;;;;;5075637;28;20028;-80
2023/04/20 04:35:09;;;;;;;5.53;1.77;;;10.30;66.60;;;;;;5075110;28;20122;-80
2023/04/20 04:37:35;;;;;;;2.17;1.52;;;10.10;67.10;;;;;;5075355;28;20349;-80
2023/04/20 04:40:01;;;;;;;5.25;2.45;;;9.90;67.70;;;;;;5093413;28;20029;-79
2023/04/20 04:42:29;;;;;;;5.20;1.80;;;10.00;68.10;;;;;;5093117;28;20027;-80
2023/04/20 04:44:55;;;;;;;3.67;1.75;;;9.90;68.00;;;;;;5042584;28;20039;-80
2023/04/20 04:47:21;;;;;;;4.55;1.75;;;9.70;68.50;;;;;;5058516;28;20036;-80
2023/04/20 04:49:47;;;;;;;5.38;2.08;;;9.70;68.90;;;;;;5074829;28;20384;-78
2023/04/20 04:52:13;;;;;;;10.80;2.00;;;9.70;69.00;;;;;;5092979;28;20047;-80
2023/04/20 04:54:39;;;;;;;6.25;2.03;;;9.70;69.10;;;;;;5075139;28;20032;-81
2023/04/20 04:57:05;;;;;;;4.18;1.70;;;9.70;69.50;;;;;;5093151;28;20380;-80
2023/04/20 04:59:31;;;;;;;7.35;2.17;;;9.70;69.50;;;;;;5096861;28;20133;-79
2023/04/20 05:01:57;;;;;;;3.58;1.80;;;9.80;69.30;;;;;;5079006;28;20039;-80
2023/04/20 05:04:22;;;;;;;5.72;2.28;;;9.90;69.10;;;;;;5097122;28;20024;-81
2023/04/20 05:06:48;;;;;;;5.40;2.10;;;10.00;68.70;;;;;;5078324;28;20480;-80
2023/04/20 05:09:14;;;;;;;6.75;1.90;;;10.10;68.60;;;;;;5078603;28;20440;-80
2023/04/20 05:11:40;;;;;;;5.80;2.17;;;10.20;68.40;;;;;;5061596;28;20042;-81
2023/04/20 05:14:06;;;;;;;4.47;1.75;;;10.10;68.70;;;;;;5061978;28;20032;-81
2023/04/20 05:16:31;;;;;;;7.88;1.90;;;10.10;68.80;;;;;;5078778;28;20028;-80
2023/04/20 05:18:57;;;;;;;6.38;1.70;;;9.90;69.30;;;;;;5078558;28;20031;-80
2023/04/20 05:21:23;;;;;;;5.88;1.77;;;9.90;69.60;;;;;;5096992;28;20081;-80
2023/04/20 05:23:49;;;;;;;3.33;1.67;;;10.00;69.60;;;;;;5079289;28;20032;-81
2023/04/20 05:26:15;;;;;;;4.43;2.03;;;10.20;69.60;;;;;;5061943;28;20032;-81
2023/04/20 05:28:41;;;;;;;2.95;2.13;;;10.10;69.40;;;;;;5078533;28;20028;-80
2023/04/20 05:31:07;;;;;;;5.05;1.90;;;10.10;69.50;;;;;;5045141;28;20460;-81
2023/04/20 05:33:32;;;;;;;3.97;1.88;;;10.30;69.70;;;;;;5078393;28;20081;-81
2023/04/20 05:35:58;;;;;;;6.03;2.22;;;10.40;69.40;;;;;;5078611;28;20120;-80
2023/04/20 05:38:24;;;;;;;6.53;2.38;;;10.20;69.30;;;;;;5096624;28;20032;-80
2023/04/20 05:40:50;;;;;;;5.18;2.40;;;10.20;69.80;;;;;;5078186;28;20419;-80
2023/04/20 05:43:17;;;;;;;5.65;2.25;;;10.20;70.00;;;;;;5044864;28;20085;-81
2023/04/20 05:45:44;;;;;;;6.68;2.03;;;10.20;70.00;;;;;;5062212;28;20034;-79
2023/04/20 05:48:09;;;;;;;4.32;1.65;;;10.20;70.10;;;;;;5078921;28;20031;-81
2023/04/20 05:50:35;;;;;;;4.93;2.00;;;10.30;70.20;;;;;;5077727;28;20107;-81
2023/04/20 05:53:01;;;;;;;5.30;2.20;;;10.30;70.20;;;;;;5077950;28;20039;-81
2023/04/20 05:55:27;;;;;;;4.68;2.28;;;10.30;70.20;;;;;;5061932;28;20078;-80
2023/04/20 05:57:52;;;;;;;3.28;1.67;;;10.40;70.10;;;;;;5044608;28;20123;-80
2023/04/20 06:00:19;;;;;;;4.30;1.90;;;10.50;70.10;;;;;;5044517;28;20028;-80
2023/04/20 06:02:44;;;;;;;4.43;2.40;;;10.50;70.10;;;;;;5061262;28;20047;-80
2023/04/20 06:05:10;;;;;;;5.00;2.53;;;10.30;70.50;;;;;;5061317;28;20060;-80
2023/04/20 06:07:36;;;;;;;4.43;1.80;;;10.20;70.90;;;;;;5061278;28;20464;-80
2023/04/20 06:10:03;;;;;;;6.35;2.78;;;10.20;72.00;;;;;;5077131;28;20512;-80
2023/04/20 06:12:29;;;;;;;2.85;1.90;;;10.20;71.70;;;;;;5077384;28;20200;-79
2023/04/20 06:14:55;;;;;;;7.72;2.50;;;10.20;72.10;;;;;;5077267;28;20151;-80
2023/04/20 06:17:21;;;;;;;4.53;2.50;;;10.30;71.70;;;;;;5044344;28;20028;-80
2023/04/20 06:19:46;;;;;;;4.57;2.30;;;10.30;71.80;;;;;;5077560;28;20031;-79
2023/04/20 06:22:13;;;;;;;4.60;2.58;;;10.30;71.80;;;;;;5061541;28;20032;-80
2023/04/20 06:24:41;;;;;;;5.43;2.10;;;10.20;72.10;;;;;;5095459;28;20085;-80
2023/04/20 06:27:09;;;;;;;8.45;2.60;;;10.10;72.60;;;;;;5077763;28;20472;-79
2023/04/20 06:29:35;;;;;;;6.30;2.00;;;10.20;72.20;;;;;;5060519;28;20060;-79
2023/04/20 06:32:01;;;;;;;7.78;2.33;;;10.20;72.40;;;;;;5060656;28;20070;-79
2023/04/20 06:34:26;;;;;;;4.68;2.40;;;10.20;72.50;;;;;;5077088;28;20083;-79
2023/04/20 06:36:52;;;;;;;3.42;2.15;;;10.10;72.90;;;;;;5077307;28;20052;-79
2023/04/20 06:39:18;;;;;;;8.25;2.42;;;10.10;73.00;;;;;;5077166;28;20483;-80
2023/04/20 06:41:44;;;;;;;4.55;2.63;;;10.20;73.40;;;;;;5077704;28;20036;-79
2023/04/20 06:44:10;;;;;;;5.45;2.63;;;10.30;72.80;;;;;;5095340;28;20049;-80
2023/04/20 06:46:35;;;;;;;7.75;2.67;;;10.40;72.50;;;;;;5095458;28;20073;-80
2023/04/20 06:49:02;;;;;;;4.70;2.72;;;10.30;72.10;;;;;;5061222;28;20024;-78
2023/04/20 06:51:28;;;;;;;4.30;2.30;;;10.40;72.40;;;;;;5076889;28;20123;-80
2023/04/20 06:53:55;;;;;;;6.30;2.67;;;10.50;72.80;;;;;;5095310;28;20034;-78
2023/04/20 06:56:21;;;;;;;7.57;2.45;;;10.40;72.20;;;;;;5076643;28;20032;-79
2023/04/20 06:58:46;;;;;;;6.30;2.60;;;10.50;72.30;;;;;;5059899;28;20035;-78
2023/04/20 07:01:12;;;;;;;5.78;2.75;;;10.50;72.20;;;;;;5059923;28;20024;-80
2023/04/20 07:03:38;;;;;;;8.07;3.20;;;10.50;72.60;;;;;;5076895;28;20024;-79
2023/04/20 07:06:06;;;;;;;5.93;3.00;;;10.50;72.80;;;;;;5095049;28;20051;-80
2023/04/20 07:08:32;;;;;;;7.07;3.00;;;10.40;73.50;;;;;;5094728;28;20016;-80
2023/04/20 07:10:58;;;;;;;6.85;2.92;;;10.40;73.60;;;;;;5094391;28;20487;-80
2023/04/20 07:13:23;;;;;;;8.70;3.40;;;10.30;74.20;;;;;;5059849;28;20111;-80
2023/04/20 07:15:49;;;;;;;7.57;2.75;;;10.30;74.50;;;;;;5094689;28;20035;-79
2023/04/20 07:18:15;;;;;;;6.05;3.08;;;10.30;74.60;;;;;;5044278;28;20036;-80
2023/04/20 07:20:41;;;;;;;4.95;2.92;;;10.50;74.60;;;;;;5058819;28;20028;-80
2023/04/20 07:23:07;;;;;;;5.70;3.00;;;10.50;75.00;;;;;;5076667;28;20024;-80
2023/04/20 07:25:32;;;;;;;5.07;2.50;;;10.60;74.60;;;;;;5059862;28;20054;-79
2023/04/20 07:27:58;;;;;;;4.82;2.47;;;10.50;74.60;;;;;;5075962;28;20039;-79
2023/04/20 07:30:24;;;;;;;5.85;2.92;;;10.70;74.80;;;;;;5059885;28;20028;-79
2023/04/20 07:32:49;;;;;;;7.78;3.40;;;10.60;74.40;;;;;;5075917;28;20042;-80
2023/04/20 07:35:15;;;;;;;5.45;3.20;;;10.60;74.60;;;;;;5075833;28;20042;-80
2023/04/20 07:37:41;;;;;;;9.10;3.10;;;10.50;74.80;;;;;;5059555;28;20032;-80
2023/04/20 07:40:08;;;;;;;4.43;2.70;;;10.50;75.30;;;;;;5093903;28;20020;-81
2023/04/20 07:42:38;;;;;;;5.65;3.25;;;10.50;75.70;;;;;;5093941;28;20449;-80
2023/04/20 07:45:08;;;;;;;7.03;3.35;;;10.50;75.80;;;;;;5075998;28;20125;-80
2023/04/20 07:47:34;;;;;;;6.72;3.28;;;10.50;76.30;;;;;;5060186;28;20375;-81
2023/04/20 07:49:59;;;;;;;4.85;3.85;;;10.70;76.00;;;;;;5059112;28;20111;-79
2023/04/20 07:52:25;;;;;;;8.60;3.28;;;10.70;75.40;;;;;;5075972;28;20036;-80
2023/04/20 07:54:56;;;;;;;5.55;3.08;;;10.60;75.80;;;;;;5076645;28;20411;-79
2023/04/20 07:57:22;;;;;;;5.00;3.50;;;10.60;76.10;;;;;;5093830;28;20376;-80
2023/04/20 07:59:48;;;;;;;5.95;3.13;;;10.70;76.20;;;;;;5093886;28;20060;-80
2023/04/20 08:02:14;;;;;;;11.07;4.05;;;10.60;76.10;;;;;;5059387;28;20139;-80
2023/04/20 08:04:40;;;;;;;6.00;3.15;;;10.60;76.20;;;;;;5075154;28;20028;-80
2023/04/20 08:07:06;;;;;;;6.40;3.30;;;10.50;77.20;;;;;;5058640;28;20028;-79
2023/04/20 08:09:31;;;;;;;7.28;4.15;;;10.40;76.80;;;;;;5075307;28;20024;-80
2023/04/20 08:11:57;;;;;;;5.95;3.83;;;10.30;77.80;;;;;;5093380;28;20418;-79
2023/04/20 08:14:23;;;;;;;6.72;3.67;;;10.30;77.90;;;;;;5093657;28;20425;-79
2023/04/20 08:16:48;;;;;;;7.95;3.60;;;10.40;77.60;;;;;;5093201;28;20417;-80
2023/04/20 08:19:14;;;;;;;6.15;3.38;;;10.40;78.00;;;;;;5058554;28;20024;-80
2023/04/20 08:21:40;;;;;;;6.45;3.47;;;10.60;77.60;;;;;;5058587;28;20066;-80
2023/04/20 08:24:07;;;;;;;9.82;4.55;;;10.50;77.30;;;;;;5075294;28;20035;-80
2023/04/20 08:26:33;;;;;;;9.40;3.92;;;10.40;77.80;;;;;;5093626;28;20101;-79
2023/04/20 08:28:59;;;;;;;7.88;3.72;;;10.20;78.40;;;;;;5075218;28;20431;-81
2023/04/20 08:31:25;;;;;;;3.88;2.92;;;10.30;78.80;;;;;;5075233;28;20086;-80
2023/04/20 08:33:51;;;;;;;8.60;3.95;;;10.50;78.30;;;;;;5075254;28;20036;-80
2023/04/20 08:36:17;;;;;;;5.65;3.47;;;10.50;78.40;;;;;;5075147;28;20020;-80
2023/04/20 08:38:43;;;;;;;5.53;3.50;;;10.60;78.60;;;;;;5075380;28;20056;-80
2023/04/20 08:41:12;;;;;;;6.88;3.85;;;10.50;78.80;;;;;;5074914;28;20069;-80
2023/04/20 08:43:38;;;;;;;6.68;3.72;;;10.50;79.30;;;;;;5075787;28;20035;-80
2023/04/20 08:46:04;;;;;;;8.45;4.20;;;10.50;79.70;;;;;;5058519;28;20326;-80
2023/04/20 08:48:38;;;;;;;7.18;3.67;;;10.60;79.50;;;;;;5093139;28;20028;-80
2023/04/20 08:51:04;;;;;;;9.48;3.85;;;10.70;79.80;;;;;;5058065;28;20472;-81
2023/04/20 08:53:31;;;;;;;7.05;3.55;;;10.70;80.30;;;;;;5092850;28;20119;-79
2023/04/20 08:55:57;;;;;;;5.80;3.33;;;10.70;79.70;;;;;;5074811;28;20035;-79
2023/04/20 08:58:31;;;;;;;8.10;3.42;;;10.60;80.40;;;;;;5074222;28;20027;-80
2023/04/20 09:00:59;;;;;;;7.30;3.70;;;10.50;80.90;;;;;;5058111;28;20032;-80
2023/04/20 09:03:51;;;;;;;7.32;3.92;;;10.60;80.70;;;;;;5075136;28;20127;-80
2023/04/20 09:06:17;;;;;;;5.63;3.33;;;10.70;81.40;;;;;;5067054;28;20052;-79
2023/04/20 09:08:45;;;;;;;7.75;3.22;;;10.80;80.70;;;;;;5071288;28;20028;-81
2023/04/20 09:11:25;;;;;;;6.85;3.50;;;10.90;80.90;;;;;;5071233;28;20619;-80
2023/04/20 09:14:14;;;;;;;8.50;3.72;;;10.90;80.70;;;;;;5054392;28;20086;-80
2023/04/20 09:16:59;;;;;;;7.97;3.95;;;10.70;81.00;;;;;;5071264;28;20134;-81
2023/04/20 09:19:26;;;;;;;5.18;2.97;;;10.70;81.10;;;;;;5071457;28;20047;-81
2023/04/20 09:21:55;;;;;;;9.65;3.67;;;10.70;81.30;;;;;;5071467;28;20033;-80
2023/04/20 09:24:22;;;;;;;7.32;2.90;;;10.80;82.00;;;;;;5071542;28;20033;-81
2023/04/20 09:26:48;;;;;;;5.43;3.55;;;10.80;81.70;;;;;;5071150;28;20120;-80
2023/04/20 09:29:17;;;;;;;5.32;3.20;;;10.90;81.10;;;;;;5037763;28;20036;-81
2023/04/20 09:31:43;;;;;;;3.53;2.63;;;11.00;80.60;;;;;;5072131;28;20035;-80
2023/04/20 09:34:09;;;;;;;4.35;3.20;;;11.10;80.30;;;;;;5071526;28;20033;-80
2023/04/20 09:36:39;;;;;;;7.53;3.25;;;11.20;80.50;;;;;;5072093;28;20028;-81
2023/04/20 09:39:14;;;;;;;5.35;3.15;;;11.20;79.60;;;;;;5072038;28;20090;-81
2023/04/20 09:41:41;;;;;;;4.55;3.40;;;11.10;78.70;;;;;;5072420;28;20032;-81
2023/04/20 09:44:07;;;;;;;7.43;2.65;;;11.10;79.10;;;;;;5055696;28;20078;-80
2023/04/20 09:46:35;;;;;;;4.97;2.47;;;11.00;79.40;;;;;;5075329;28;20028;-81
2023/04/20 09:49:06;;;;;;;5.40;3.53;;;10.80;79.90;;;;;;5074782;28;20029;-79
2023/04/20 09:51:34;;;;;;;7.10;3.30;;;10.70;80.50;;;;;;5074436;28;20032;-80
2023/04/20 09:54:02;;;;;;;4.25;3.33;;;10.50;81.80;;;;;;5074675;28;20081;-80
2023/04/20 09:56:29;;;;;;;6.25;3.30;;;10.60;82.40;;;;;;5074500;28;20029;-80
2023/04/20 09:58:57;;;;;;;6.18;3.45;;;10.60;82.40;;;;;;5074772;28;20082;-80
2023/04/20 10:01:23;;;;;;;7.18;3.00;;;10.70;82.20;;;;;;5074259;28;20449;-78
2023/04/20 10:03:52;;;;;;;5.20;3.03;;;10.80;81.50;;;;;;5074018;28;20020;-79
2023/04/20 10:06:26;;;;;;;6.05;2.97;;;11.00;81.20;;;;;;5090862;28;20076;-80
2023/04/20 10:08:52;;;;;;;10.18;2.85;;;11.10;79.60;;;;;;5096315;28;20078;-78
2023/04/20 10:11:31;;;;;;;7.05;3.08;;;11.10;79.10;;;;;;5081266;28;20032;-80
2023/04/20 10:13:58;;;;;;;5.97;2.80;;;11.10;78.90;;;;;;5087064;28;20108;-79
2023/04/20 10:16:25;;;;;;;5.70;2.42;;;11.10;79.40;;;;;;5068026;28;20120;-80
2023/04/20 10:19:02;;;;;;;5.55;2.58;;;11.20;78.70;;;;;;5068819;28;20103;-80
2023/04/20 10:21:43;;;;;;;6.20;3.05;;;11.40;78.60;;;;;;5083251;28;20024;-80
2023/04/20 10:24:08;;;;;;;4.65;2.72;;;11.50;78.30;;;;;;5083176;28;20028;-80
2023/04/20 10:26:44;;;;;;;8.40;2.75;;;11.50;76.70;;;;;;5104016;28;20031;-80
2023/04/20 10:29:23;;;;;;;5.47;2.45;;;11.60;77.40;;;;;;5087552;28;20120;-80
2023/04/20 10:31:49;;;;;;;5.32;2.78;;;11.70;78.10;;;;;;5106215;28;20107;-80
2023/04/20 10:34:15;;;;;;;4.07;2.47;;;11.90;76.20;;;;;;5084687;28;20024;-81
2023/04/20 10:36:41;;;;;;;5.68;2.63;;;12.20;75.70;;;;;;5090552;28;20055;-81
2023/04/20 10:39:18;;;;;;;4.35;2.45;;;12.40;75.30;;;;;;5104971;28;20468;-80
2023/04/20 10:41:57;;;;;;;3.67;2.30;;;12.30;72.80;;;;;;5084626;28;20032;-80
2023/04/20 10:44:26;;;;;;;4.60;1.98;;;12.40;73.00;;;;;;5085086;28;20031;-80
2023/04/20 10:46:58;;;;;;;8.27;2.95;;;12.40;72.70;;;;;;5108121;28;20024;-80
2023/04/20 10:49:31;;;;;;;5.13;2.53;;;12.50;72.40;;;;;;5069819;28;20086;-79
2023/04/20 10:51:57;;;;;;;6.90;2.50;;;12.40;72.80;;;;;;5104477;28;20051;-79
2023/04/20 10:54:23;;;;;;;4.93;2.30;;;12.40;72.10;;;;;;5081439;28;20068;-81
2023/04/20 10:56:51;;;;;;;3.42;2.30;;;12.30;71.60;;;;;;5064548;28;20432;-80
2023/04/20 10:59:20;;;;;;;3.60;2.20;;;12.30;71.80;;;;;;5085018;28;20028;-79
2023/04/20 11:01:47;;;;;;;3.15;2.25;;;12.60;73.00;;;;;;5083129;28;20028;-80
2023/04/20 11:04:13;;;;;;;4.28;2.65;;;12.80;72.30;;;;;;5081450;28;20065;-79
2023/04/20 11:06:40;;;;;;;5.95;2.65;;;12.90;70.20;;;;;;5078504;28;20052;-80
2023/04/20 11:09:27;;;;;;;5.15;2.28;;;12.80;69.90;;;;;;5096737;28;20031;-80
2023/04/20 11:12:02;;;;;;;5.78;2.70;;;12.60;70.50;;;;;;5077824;28;20079;-81
2023/04/20 11:14:29;;;;;;;4.45;2.67;;;12.50;70.70;;;;;;5061058;28;20036;-80
2023/04/20 11:16:55;;;;;;;4.47;2.30;;;12.50;70.60;;;;;;5097510;28;20050;-80
2023/04/20 11:19:29;;;;;;;4.32;2.55;;;12.30;71.20;;;;;;5078986;28;20032;-81
2023/04/20 11:21:55;;;;;;;5.05;2.72;;;12.20;71.40;;;;;;5095836;28;20028;-80
2023/04/20 11:24:23;;;;;;;5.22;3.03;;;12.00;71.80;;;;;;5097080;28;20081;-81
2023/04/20 11:26:49;;;;;;;3.95;2.83;;;11.90;72.10;;;;;;5077746;28;20544;-82
2023/04/20 11:29:35;;;;;;;5.43;2.83;;;11.80;73.20;;;;;;5095509;28;20020;-81
2023/04/20 11:32:06;;;;;;;5.38;2.97;;;11.80;73.30;;;;;;5095575;28;20106;-79
2023/04/20 11:34:33;;;;;;;4.35;3.03;;;11.70;73.40;;;;;;5095533;28;20021;-80
2023/04/20 11:37:10;;;;;;;4.63;2.95;;;11.60;73.40;;;;;;5077657;28;20060;-80
2023/04/20 11:39:36;;;;;;;4.55;2.90;;;11.70;73.50;;;;;;5062539;28;20032;-80
2023/04/20 11:42:03;;;;;;;6.22;3.03;;;11.70;73.90;;;;;;5078999;28;20040;-80
2023/04/20 11:44:28;;;;;;;4.28;2.97;;;11.80;73.30;;;;;;5080924;28;20020;-80
2023/04/20 11:46:58;;;;;;;7.13;3.00;;;11.80;73.70;;;;;;5047144;28;20177;-81
2023/04/20 11:49:26;;;;;;;5.70;3.20;;;11.90;74.00;;;;;;5098301;28;20050;-80
2023/04/20 11:51:52;;;;;;;5.13;3.10;;;11.90;73.30;;;;;;5096210;28;20028;-80
2023/04/20 11:54:20;;;;;;;4.10;3.40;;;11.90;73.60;;;;;;5043861;28;20036;-80
2023/04/20 11:56:46;;;;;;;4.07;2.70;;;11.90;73.90;;;;;;5062496;28;20333;-79
2023/04/20 11:59:18;;;;;;;3.97;2.70;;;11.90;74.20;;;;;;5095922;28;20557;-79
2023/04/20 12:01:44;;;;;;;4.32;3.15;;;11.90;74.50;;;;;;5061778;28;20418;-80
2023/04/20 12:04:10;;;;;;;4.57;2.92;;;11.90;74.30;;;;;;5077354;28;20063;-80
2023/04/20 12:06:36;;;;;;;3.95;3.08;;;11.90;74.70;;;;;;5094173;28;20060;-80
2023/04/20 12:09:01;;;;;;;7.07;3.00;;;11.80;74.50;;;;;;5061138;28;20061;-80
2023/04/20 12:11:27;;;;;;;4.38;3.30;;;11.80;74.40;;;;;;5079525;28;20357;-80
2023/04/20 12:13:56;;;;;;;5.15;3.00;;;11.80;74.80;;;;;;5097336;28;20133;-81
2023/04/20 12:16:21;;;;;;;7.85;4.00;;;11.80;74.50;;;;;;5060010;28;20462;-80
2023/04/20 12:18:47;;;;;;;6.22;3.72;;;11.80;75.30;;;;;;5060514;28;20024;-81
2023/04/20 12:21:19;;;;;;;5.85;3.78;;;11.80;75.10;;;;;;5059199;28;20130;-81
2023/04/20 12:23:45;;;;;;;6.30;3.38;;;11.80;75.10;;;;;;5094133;28;20407;-81
2023/04/20 12:26:11;;;;;;;5.38;3.75;;;11.70;74.20;;;;;;5075928;28;20059;-81
2023/04/20 12:28:36;;;;;;;4.97;3.85;;;11.70;74.40;;;;;;5095327;28;20107;-80
2023/04/20 12:31:02;;;;;;;6.65;3.40;;;11.60;74.00;;;;;;5078003;28;20092;-79
2023/04/20 12:33:28;;;;;;;6.25;4.07;;;11.60;73.90;;;;;;5077744;28;20387;-81
2023/04/20 12:35:54;;;;;;;5.07;3.80;;;11.70;74.30;;;;;;5060589;28;20135;-81
2023/04/20 12:38:20;;;;;;;5.18;3.78;;;11.60;74.50;;;;;;5095037;28;20055;-80
2023/04/20 12:40:45;;;;;;;5.75;3.17;;;11.60;75.20;;;;;;5095987;28;20020;-80
2023/04/20 12:43:11;;;;;;;4.80;3.40;;;11.60;74.90;;;;;;5062052;28;20085;-80
2023/04/20 12:45:37;;;;;;;4.45;3.92;;;11.70;75.10;;;;;;5080807;28;20032;-81